Time;durP1;ratioP1;P1;durP2;ratioP2;P2;SDS_P1;SDS_P2;PMS_P1;PMS_P2;Temp;Humidity;BMP_temperature;BMP_pressure;BME280_temperature;BME280_humidity;BME280_pressure;Samples;Min_cycle;Max_cycle;Signal;HPM_P1;HPM_P2
2023/10/29 00:00:37;;;;;;;3.10;2.23;;;;;;;;;;6199615;23;20387;-92
2023/10/29 00:03:06;;;;;;;3.63;2.77;;;;;;;;;;6198031;23;20470;-91
2023/10/29 00:05:32;;;;;;;4.23;2.47;;;;;;;;;;6201498;23;20439;-92
2023/10/29 00:07:58;;;;;;;5.43;2.00;;;;;;;;;;6197837;23;20822;-90
2023/10/29 00:10:24;;;;;;;2.20;2.03;;;;;;;;;;6200336;23;20394;-91
2023/10/29 00:12:50;;;;;;;3.30;2.07;;;;;;;;;;6198379;23;20411;-91
2023/10/29 00:15:16;;;;;;;2.57;2.23;;;;;;;;;;6224646;23;20370;-89
2023/10/29 00:17:43;;;;;;;3.13;2.27;;;;;;;;;;6196165;23;20402;-90
2023/10/29 00:20:09;;;;;;;2.70;2.20;;;;;;;;;;6199354;23;20387;-91
2023/10/29 00:22:35;;;;;;;4.60;2.47;;;;;;;;;;6199556;23;20455;-90
2023/10/29 00:25:01;;;;;;;3.03;1.80;;;;;;;;;;6203074;23;20414;-91
2023/10/29 00:27:27;;;;;;;3.00;2.50;;;;;;;;;;6200134;23;20403;-90
2023/10/29 00:29:54;;;;;;;2.50;2.30;;;;;;;;;;6197458;23;20401;-90
2023/10/29 00:32:20;;;;;;;5.63;2.40;;;;;;;;;;6198988;23;20862;-90
2023/10/29 00:34:49;;;;;;;2.07;1.77;;;;;;;;;;6194999;23;20434;-90
2023/10/29 00:37:17;;;;;;;1.90;1.73;;;;;;;;;;6198900;23;20619;-90
2023/10/29 00:39:43;;;;;;;3.53;2.03;;;;;;;;;;6198510;23;20395;-92
2023/10/29 00:42:12;;;;;;;7.03;2.70;;;;;;;;;;6200296;23;20465;-90
2023/10/29 00:44:39;;;;;;;3.60;2.17;;;;;;;;;;6198965;23;20386;-90
2023/10/29 00:47:05;;;;;;;2.60;2.30;;;;;;;;;;6199592;23;20446;-90
2023/10/29 00:49:31;;;;;;;1.70;1.60;;;;;;;;;;6199835;23;20383;-91
2023/10/29 00:51:57;;;;;;;3.33;2.20;;;;;;;;;;6196023;23;20414;-90
2023/10/29 00:54:23;;;;;;;1.60;1.30;;;;;;;;;;6200898;23;20390;-89
2023/10/29 00:56:49;;;;;;;5.27;1.90;;;;;;;;;;6224002;23;20371;-90
2023/10/29 00:59:15;;;;;;;4.07;1.90;;;;;;;;;;6202132;23;20420;-90
2023/10/29 01:01:41;;;;;;;2.13;1.70;;;;;;;;;;6199377;23;20387;-90
2023/10/29 01:04:08;;;;;;;1.70;1.60;;;;;;;;;;6199133;23;20390;-90
2023/10/29 01:06:38;;;;;;;2.03;1.77;;;;;;;;;;6196270;23;20419;-90
2023/10/29 01:09:04;;;;;;;2.90;1.70;;;;;;;;;;6198472;23;20379;-90
2023/10/29 01:11:32;;;;;;;2.50;2.13;;;;;;;;;;6196896;23;20549;-89
2023/10/29 01:13:58;;;;;;;7.00;2.30;;;;;;;;;;6200125;23;20363;-90
2023/10/29 01:16:24;;;;;;;1.50;1.40;;;;;;;;;;6198364;23;20421;-90
2023/10/29 01:18:50;;;;;;;2.27;1.60;;;;;;;;;;6199374;23;20386;-89
2023/10/29 01:21:16;;;;;;;1.83;1.40;;;;;;;;;;6197594;23;20379;-90
2023/10/29 01:23:42;;;;;;;4.00;1.80;;;;;;;;;;6200050;23;20419;-90
2023/10/29 01:26:08;;;;;;;6.00;1.80;;;;;;;;;;6197433;23;20643;-90
2023/10/29 01:28:34;;;;;;;3.17;1.53;;;;;;;;;;6199651;23;20410;-90
2023/10/29 01:31:00;;;;;;;3.27;1.27;;;;;;;;;;6199965;23;20399;-89
2023/10/29 01:33:26;;;;;;;1.80;1.30;;;;;;;;;;6197450;23;20466;-90
2023/10/29 01:35:53;;;;;;;1.60;1.23;;;;;;;;;;6200805;23;21009;-89
2023/10/29 01:38:18;;;;;;;2.00;1.40;;;;;;;;;;6198206;23;20460;-90
2023/10/29 01:40:44;;;;;;;1.90;1.40;;;;;;;;;;6199844;23;20379;-89
2023/10/29 01:43:10;;;;;;;1.43;1.17;;;;;;;;;;6221865;23;20367;-90
2023/10/29 01:45:37;;;;;;;2.20;1.60;;;;;;;;;;6201270;23;20407;-90
2023/10/29 01:48:03;;;;;;;5.00;1.77;;;;;;;;;;6222223;23;20412;-89
2023/10/29 01:50:29;;;;;;;1.40;1.17;;;;;;;;;;6200234;23;20697;-89
2023/10/29 01:52:55;;;;;;;2.13;1.37;;;;;;;;;;6195939;23;20398;-89
2023/10/29 01:55:21;;;;;;;1.43;1.03;;;;;;;;;;6198882;23;20379;-90
2023/10/29 01:57:47;;;;;;;3.40;1.40;;;;;;;;;;6197183;23;20419;-90
2023/10/29 02:00:14;;;;;;;1.73;1.20;;;;;;;;;;6198588;23;20375;-90
2023/10/29 02:02:40;;;;;;;1.47;1.27;;;;;;;;;;6197279;23;20906;-90
2023/10/29 02:05:06;;;;;;;13.53;2.10;;;;;;;;;;6198230;23;20891;-90
2023/10/29 02:07:32;;;;;;;2.47;1.23;;;;;;;;;;6198547;23;20383;-90
2023/10/29 02:09:58;;;;;;;1.60;0.97;;;;;;;;;;6196010;23;20381;-90
2023/10/29 02:12:24;;;;;;;2.90;1.20;;;;;;;;;;6199040;23;20379;-90
2023/10/29 02:14:50;;;;;;;1.93;1.10;;;;;;;;;;6222030;23;20370;-90
2023/10/29 02:17:16;;;;;;;1.83;1.27;;;;;;;;;;6200105;23;20379;-90
2023/10/29 02:19:42;;;;;;;2.37;1.30;;;;;;;;;;6196982;23;20414;-90
2023/10/29 02:22:08;;;;;;;4.00;1.40;;;;;;;;;;6199073;23;20436;-91
2023/10/29 02:24:34;;;;;;;1.50;1.40;;;;;;;;;;6197640;23;20470;-90
2023/10/29 02:27:00;;;;;;;7.07;1.57;;;;;;;;;;6198797;23;20449;-91
2023/10/29 02:29:26;;;;;;;2.57;1.50;;;;;;;;;;6174816;23;20379;-89
2023/10/29 02:31:52;;;;;;;2.93;1.50;;;;;;;;;;6176954;23;20387;-90
2023/10/29 02:34:18;;;;;;;3.50;1.40;;;;;;;;;;6174991;23;20854;-89
2023/10/29 02:36:44;;;;;;;6.20;1.43;;;;;;;;;;6177171;23;20402;-89
2023/10/29 02:39:12;;;;;;;1.17;1.00;;;;;;;;;;6171002;23;20437;-90
2023/10/29 02:41:38;;;;;;;2.07;1.23;;;;;;;;;;6173135;23;20383;-90
2023/10/29 02:44:04;;;;;;;1.40;1.30;;;;;;;;;;6171549;23;20421;-89
2023/10/29 02:46:30;;;;;;;1.70;1.50;;;;;;;;;;6174076;23;20421;-89
2023/10/29 02:48:56;;;;;;;2.90;1.03;;;;;;;;;;6172852;23;20756;-89
2023/10/29 02:51:22;;;;;;;1.57;1.10;;;;;;;;;;6175250;23;20414;-90
2023/10/29 02:53:48;;;;;;;2.40;1.83;;;;;;;;;;6173437;23;20387;-90
2023/10/29 02:56:14;;;;;;;1.53;1.33;;;;;;;;;;6175901;23;20405;-90
2023/10/29 02:58:40;;;;;;;1.67;1.00;;;;;;;;;;6173879;23;20371;-89
2023/10/29 03:01:07;;;;;;;1.30;1.10;;;;;;;;;;6175622;23;20374;-90
2023/10/29 03:03:33;;;;;;;2.23;1.10;;;;;;;;;;6175734;23;20382;-89
2023/10/29 03:06:02;;;;;;;3.33;1.20;;;;;;;;;;6175555;23;20415;-90
2023/10/29 03:08:28;;;;;;;2.23;1.27;;;;;;;;;;6173497;23;20450;-90
2023/10/29 03:10:54;;;;;;;1.63;1.00;;;;;;;;;;6175613;23;20383;-90
2023/10/29 03:13:20;;;;;;;4.17;1.23;;;;;;;;;;6174069;23;20380;-90
2023/10/29 03:15:46;;;;;;;1.90;1.30;;;;;;;;;;6175894;23;20383;-90
2023/10/29 03:18:15;;;;;;;1.23;1.10;;;;;;;;;;6174652;23;20383;-90
2023/10/29 03:20:41;;;;;;;2.60;1.00;;;;;;;;;;6175158;23;20450;-91
2023/10/29 03:23:07;;;;;;;1.60;1.00;;;;;;;;;;6173620;23;20386;-90
2023/10/29 03:25:33;;;;;;;2.30;1.30;;;;;;;;;;6174735;23;20647;-90
2023/10/29 03:27:59;;;;;;;1.83;1.10;;;;;;;;;;6182128;23;20427;-89
2023/10/29 03:30:25;;;;;;;1.37;1.13;;;;;;;;;;6198482;23;20375;-89
2023/10/29 03:32:51;;;;;;;2.70;1.20;;;;;;;;;;6198512;23;20375;-89
2023/10/29 03:35:17;;;;;;;4.30;1.37;;;;;;;;;;6199235;23;20750;-90
2023/10/29 03:37:43;;;;;;;1.37;0.97;;;;;;;;;;6198157;23;20390;-90
2023/10/29 03:40:11;;;;;;;5.97;1.30;;;;;;;;;;6226415;23;20403;-90
2023/10/29 03:42:37;;;;;;;1.93;1.50;;;;;;;;;;6201044;23;20430;-90
2023/10/29 03:45:03;;;;;;;2.07;0.90;;;;;;;;;;6224829;23;20371;-89
2023/10/29 03:47:29;;;;;;;1.70;1.20;;;;;;;;;;6198607;23;20889;-90
2023/10/29 03:49:55;;;;;;;2.67;1.27;;;;;;;;;;6198476;23;20375;-90
2023/10/29 03:52:24;;;;;;;3.20;1.30;;;;;;;;;;6198542;23;20383;-90
2023/10/29 03:54:50;;;;;;;2.00;1.10;;;;;;;;;;6199122;23;20376;-90
2023/10/29 03:57:16;;;;;;;1.50;1.07;;;;;;;;;;6224945;23;20363;-90
2023/10/29 03:59:43;;;;;;;4.43;1.37;;;;;;;;;;6197819;23;20371;-90
2023/10/29 04:02:09;;;;;;;2.10;1.77;;;;;;;;;;6198718;23;20385;-90
2023/10/29 04:04:38;;;;;;;1.60;1.27;;;;;;;;;;6198634;22;20419;-91
2023/10/29 04:07:04;;;;;;;1.80;1.53;;;;;;;;;;6225746;23;20421;-89
2023/10/29 04:09:29;;;;;;;8.00;2.43;;;;;;;;;;6195741;23;20410;-90
2023/10/29 04:11:59;;;;;;;1.20;1.00;;;;;;;;;;6202415;23;20379;-90
2023/10/29 04:14:25;;;;;;;6.23;1.97;;;;;;;;;;6197398;23;20383;-89
2023/10/29 04:16:51;;;;;;;2.00;1.33;;;;;;;;;;6198815;23;20387;-90
2023/10/29 04:19:17;;;;;;;1.13;0.97;;;;;;;;;;6198913;23;20382;-90
2023/10/29 04:21:43;;;;;;;2.73;1.00;;;;;;;;;;6200461;23;20427;-91
2023/10/29 04:24:09;;;;;;;0.93;0.80;;;;;;;;;;6198845;23;20672;-91
2023/10/29 04:26:35;;;;;;;2.60;1.00;;;;;;;;;;6200245;23;20422;-90
2023/10/29 04:29:01;;;;;;;1.57;1.00;;;;;;;;;;6198609;23;20437;-90
2023/10/29 04:31:27;;;;;;;1.10;1.00;;;;;;;;;;6200795;23;20375;-90
2023/10/29 04:33:53;;;;;;;0.90;0.73;;;;;;;;;;6223295;23;20363;-91
2023/10/29 04:36:22;;;;;;;1.00;0.70;;;;;;;;;;6198341;23;20383;-91
2023/10/29 04:38:48;;;;;;;1.00;0.83;;;;;;;;;;6195899;23;20414;-90
2023/10/29 04:41:14;;;;;;;1.10;1.00;;;;;;;;;;6199489;23;20383;-90
2023/10/29 04:43:41;;;;;;;1.23;0.80;;;;;;;;;;6198141;23;20413;-90
2023/10/29 04:46:10;;;;;;;4.40;1.00;;;;;;;;;;6198841;23;20423;-90
2023/10/29 04:48:36;;;;;;;0.93;0.80;;;;;;;;;;6198240;23;20393;-90
2023/10/29 04:51:02;;;;;;;1.07;0.57;;;;;;;;;;6198149;23;20383;-90
2023/10/29 04:53:28;;;;;;;1.17;0.83;;;;;;;;;;6222809;23;20359;-90
2023/10/29 04:55:54;;;;;;;2.03;0.90;;;;;;;;;;6224206;23;20366;-90
2023/10/29 04:58:20;;;;;;;1.03;0.93;;;;;;;;;;6196890;23;20383;-90
2023/10/29 05:00:46;;;;;;;0.80;0.80;;;;;;;;;;6197473;23;20462;-91
2023/10/29 05:03:12;;;;;;;1.47;0.80;;;;;;;;;;6222059;23;20371;-89
2023/10/29 05:05:38;;;;;;;3.83;0.73;;;;;;;;;;6198392;23;20570;-90
2023/10/29 05:08:04;;;;;;;1.33;1.13;;;;;;;;;;6197527;23;20438;-90
2023/10/29 05:10:30;;;;;;;1.20;0.90;;;;;;;;;;6199387;23;20402;-90
2023/10/29 05:12:56;;;;;;;1.33;0.87;;;;;;;;;;6199362;23;20443;-90
2023/10/29 05:15:22;;;;;;;1.27;1.07;;;;;;;;;;6198458;23;20517;-89
2023/10/29 05:17:48;;;;;;;1.20;0.97;;;;;;;;;;6200755;23;20383;-90
2023/10/29 05:20:15;;;;;;;3.70;1.10;;;;;;;;;;6222459;23;20940;-90
2023/10/29 05:22:41;;;;;;;1.00;0.80;;;;;;;;;;6223682;23;20372;-90
2023/10/29 05:25:08;;;;;;;1.00;0.80;;;;;;;;;;6222287;23;20368;-89
2023/10/29 05:27:34;;;;;;;1.60;1.00;;;;;;;;;;6198655;23;20394;-91
2023/10/29 05:30:00;;;;;;;1.60;1.17;;;;;;;;;;6196715;23;20695;-91
2023/10/29 05:32:31;;;;;;;1.23;0.90;;;;;;;;;;6198216;23;20401;-89
2023/10/29 05:34:57;;;;;;;2.13;1.03;;;;;;;;;;6197390;23;20850;-90
2023/10/29 05:37:24;;;;;;;2.60;1.27;;;;;;;;;;6223361;23;20369;-90
2023/10/29 05:39:51;;;;;;;2.70;0.90;;;;;;;;;;6197265;22;20498;-90
2023/10/29 05:42:17;;;;;;;1.13;0.70;;;;;;;;;;6199087;23;20386;-90
2023/10/29 05:44:43;;;;;;;1.90;0.97;;;;;;;;;;6198016;23;20379;-90
2023/10/29 05:47:10;;;;;;;2.03;1.20;;;;;;;;;;6201800;23;20410;-91
2023/10/29 05:49:36;;;;;;;1.30;1.10;;;;;;;;;;6194443;23;20383;-89
2023/10/29 05:52:02;;;;;;;1.10;0.87;;;;;;;;;;6222858;23;20370;-91
2023/10/29 05:54:28;;;;;;;4.10;1.17;;;;;;;;;;6197977;23;20420;-91
2023/10/29 05:56:54;;;;;;;5.50;1.30;;;;;;;;;;6196458;23;20685;-90
2023/10/29 05:59:20;;;;;;;1.23;0.93;;;;;;;;;;6198202;23;20418;-89
2023/10/29 06:01:46;;;;;;;1.13;0.90;;;;;;;;;;6199828;23;20729;-91
2023/10/29 06:04:12;;;;;;;2.17;1.00;;;;;;;;;;6199196;23;20375;-91
2023/10/29 06:06:38;;;;;;;4.97;1.43;;;;;;;;;;6198678;23;20446;-91
2023/10/29 06:09:04;;;;;;;3.13;1.30;;;;;;;;;;6198276;23;20409;-91
2023/10/29 06:11:30;;;;;;;1.67;0.83;;;;;;;;;;6198292;23;20372;-91
2023/10/29 06:13:57;;;;;;;1.50;1.40;;;;;;;;;;6197761;23;20390;-89
2023/10/29 06:16:23;;;;;;;1.00;0.80;;;;;;;;;;6195786;23;20477;-90
2023/10/29 06:18:49;;;;;;;1.87;1.10;;;;;;;;;;6202057;23;20406;-90
2023/10/29 06:21:15;;;;;;;1.23;0.77;;;;;;;;;;6220225;23;20374;-91
2023/10/29 06:23:41;;;;;;;1.83;1.30;;;;;;;;;;6197827;23;20409;-91
2023/10/29 06:26:10;;;;;;;2.60;0.90;;;;;;;;;;6197892;23;20426;-91
2023/10/29 06:28:36;;;;;;;1.63;1.03;;;;;;;;;;6195953;23;20391;-91
2023/10/29 06:31:02;;;;;;;1.97;0.77;;;;;;;;;;6196902;23;20386;-91
2023/10/29 06:33:28;;;;;;;1.17;1.07;;;;;;;;;;6195711;23;20454;-91
2023/10/29 06:35:57;;;;;;;2.00;1.83;;;;;;;;;;6197951;23;20379;-91
2023/10/29 06:38:24;;;;;;;1.03;0.90;;;;;;;;;;6197554;23;20383;-91
2023/10/29 06:40:50;;;;;;;1.00;0.83;;;;;;;;;;6197787;23;20756;-92
2023/10/29 06:43:16;;;;;;;3.83;1.20;;;;;;;;;;6197279;23;20769;-91
2023/10/29 06:45:42;;;;;;;1.43;1.27;;;;;;;;;;6197750;23;20415;-91
2023/10/29 06:48:08;;;;;;;3.47;1.40;;;;;;;;;;6198770;23;20390;-92
2023/10/29 06:50:35;;;;;;;1.30;1.10;;;;;;;;;;6199023;23;20418;-90
2023/10/29 06:53:02;;;;;;;0.93;0.83;;;;;;;;;;6198057;23;20379;-88
2023/10/29 06:55:28;;;;;;;2.00;1.00;;;;;;;;;;6200159;23;20394;-90
2023/10/29 06:57:54;;;;;;;1.13;1.03;;;;;;;;;;6197605;23;20407;-91
2023/10/29 07:00:20;;;;;;;1.07;0.90;;;;;;;;;;6199904;23;20453;-92
2023/10/29 07:02:47;;;;;;;2.30;1.10;;;;;;;;;;6198473;23;20407;-92
2023/10/29 07:05:13;;;;;;;1.30;1.00;;;;;;;;;;6201938;23;20514;-92
2023/10/29 07:07:39;;;;;;;2.03;0.80;;;;;;;;;;6198246;23;20378;-92
2023/10/29 07:10:06;;;;;;;1.13;0.70;;;;;;;;;;6224292;23;20364;-92
2023/10/29 07:12:32;;;;;;;1.87;0.90;;;;;;;;;;6197239;23;20382;-90
2023/10/29 07:15:01;;;;;;;0.90;0.77;;;;;;;;;;6227731;23;20363;-92
2023/10/29 07:17:27;;;;;;;0.73;0.73;;;;;;;;;;6199753;23;20367;-92
2023/10/29 07:19:53;;;;;;;1.87;1.20;;;;;;;;;;6202459;23;20390;-92
2023/10/29 07:22:19;;;;;;;1.53;1.13;;;;;;;;;;6200156;23;20469;-91
2023/10/29 07:24:45;;;;;;;1.63;0.90;;;;;;;;;;6203413;23;20390;-91
2023/10/29 07:27:11;;;;;;;1.00;0.90;;;;;;;;;;6249530;23;20499;-92
2023/10/29 07:29:37;;;;;;;1.63;0.83;;;;;;;;;;6202764;23;20352;-91
2023/10/29 07:32:03;;;;;;;1.57;0.90;;;;;;;;;;6177173;23;20466;-92
2023/10/29 07:34:29;;;;;;;1.10;0.80;;;;;;;;;;6175956;23;20358;-92
2023/10/29 07:36:55;;;;;;;1.13;0.83;;;;;;;;;;6177526;23;20442;-93
2023/10/29 07:39:21;;;;;;;1.43;1.07;;;;;;;;;;6172420;23;20376;-89
2023/10/29 07:41:47;;;;;;;3.27;0.90;;;;;;;;;;6174147;23;20375;-93
2023/10/29 07:44:13;;;;;;;1.03;0.83;;;;;;;;;;6177429;23;20822;-90
2023/10/29 07:46:39;;;;;;;1.00;0.70;;;;;;;;;;6200462;23;20477;-92
2023/10/29 07:49:05;;;;;;;1.20;1.10;;;;;;;;;;6199865;23;20718;-88
2023/10/29 07:51:31;;;;;;;1.63;1.17;;;;;;;;;;6174825;23;20414;-93
2023/10/29 07:53:59;;;;;;;2.80;1.20;;;;;;;;;;6177069;23;20945;-88
2023/10/29 07:56:25;;;;;;;0.90;0.80;;;;;;;;;;6140441;23;20919;-90
2023/10/29 07:58:51;;;;;;;1.00;0.70;;;;;;;;;;6138110;23;20440;-92
2023/10/29 08:01:18;;;;;;;2.20;1.20;;;;;;;;;;6140247;23;20389;-91
2023/10/29 08:03:44;;;;;;;1.20;0.90;;;;;;;;;;6139597;23;20384;-91
2023/10/29 08:06:10;;;;;;;3.07;1.10;;;;;;;;;;6139359;23;20472;-92
2023/10/29 08:08:36;;;;;;;1.97;1.20;;;;;;;;;;6139262;23;20385;-92
2023/10/29 08:11:02;;;;;;;3.00;1.27;;;;;;;;;;6138396;23;20391;-92
2023/10/29 08:13:28;;;;;;;1.47;1.00;;;;;;;;;;6136991;23;20424;-92
2023/10/29 08:15:54;;;;;;;0.80;0.80;;;;;;;;;;6138750;23;20392;-93
2023/10/29 08:18:20;;;;;;;1.10;0.80;;;;;;;;;;6138395;23;20381;-91
2023/10/29 08:20:46;;;;;;;1.53;1.30;;;;;;;;;;6138214;23;20397;-90
2023/10/29 08:23:12;;;;;;;1.40;1.03;;;;;;;;;;6134984;23;20468;-91
2023/10/29 08:25:38;;;;;;;3.60;1.40;;;;;;;;;;6164248;23;20790;-90
2023/10/29 08:28:08;;;;;;;2.00;1.03;;;;;;;;;;6184311;23;20407;-90
2023/10/29 08:30:34;;;;;;;1.53;0.80;;;;;;;;;;6174849;23;20461;-91
2023/10/29 08:33:00;;;;;;;1.20;1.07;;;;;;;;;;6173261;23;20406;-90
2023/10/29 08:35:26;;;;;;;2.40;1.30;;;;;;;;;;6175515;23;20850;-92
2023/10/29 08:37:52;;;;;;;2.00;1.20;;;;;;;;;;6173366;23;20379;-91
2023/10/29 08:40:18;;;;;;;1.40;1.20;;;;;;;;;;6175337;23;20379;-92
2023/10/29 08:42:44;;;;;;;1.47;1.10;;;;;;;;;;6174444;23;20462;-91
2023/10/29 08:45:12;;;;;;;2.27;1.27;;;;;;;;;;6177095;23;20390;-91
2023/10/29 08:47:38;;;;;;;1.57;1.13;;;;;;;;;;6177366;23;20387;-91
2023/10/29 08:50:05;;;;;;;1.33;1.00;;;;;;;;;;6175737;23;20409;-91
2023/10/29 08:52:31;;;;;;;1.83;1.20;;;;;;;;;;6175699;23;20403;-92
2023/10/29 08:54:57;;;;;;;1.20;1.10;;;;;;;;;;6174359;23;20379;-92
2023/10/29 08:57:23;;;;;;;3.67;1.27;;;;;;;;;;6177252;23;20371;-91
2023/10/29 08:59:49;;;;;;;1.03;0.87;;;;;;;;;;6197476;23;20383;-92
2023/10/29 09:02:15;;;;;;;1.63;0.90;;;;;;;;;;6176069;23;20382;-93
2023/10/29 09:04:41;;;;;;;1.70;1.30;;;;;;;;;;6174359;23;20359;-92
2023/10/29 09:07:07;;;;;;;1.20;1.00;;;;;;;;;;6174674;23;20487;-92
2023/10/29 09:09:36;;;;;;;1.37;1.10;;;;;;;;;;6173206;23;20414;-91
2023/10/29 09:12:01;;;;;;;2.10;1.50;;;;;;;;;;6174716;23;20387;-93
2023/10/29 09:14:27;;;;;;;1.10;0.90;;;;;;;;;;6199548;23;20789;-92
2023/10/29 09:16:55;;;;;;;2.13;1.00;;;;;;;;;;6176722;23;20449;-91
2023/10/29 09:19:21;;;;;;;1.60;1.07;;;;;;;;;;6183230;23;20391;-91
2023/10/29 09:21:48;;;;;;;1.20;1.00;;;;;;;;;;6179667;23;20379;-91
2023/10/29 09:24:15;;;;;;;1.90;1.30;;;;;;;;;;6184906;22;20375;-92
2023/10/29 09:26:41;;;;;;;1.83;1.30;;;;;;;;;;6174465;23;20403;-91
2023/10/29 09:29:10;;;;;;;1.60;1.20;;;;;;;;;;6199390;23;20395;-92
2023/10/29 09:31:37;;;;;;;2.37;1.60;;;;;;;;;;6227223;23;20450;-93
2023/10/29 09:34:04;;;;;;;1.43;1.13;;;;;;;;;;6195946;23;20704;-92
2023/10/29 09:36:30;;;;;;;1.00;0.80;;;;;;;;;;6200755;23;20413;-93
2023/10/29 09:38:57;;;;;;;2.63;1.53;;;;;;;;;;6197986;23;20355;-90
2023/10/29 09:41:23;;;;;;;2.30;1.93;;;;;;;;;;6201827;23;20376;-91
2023/10/29 09:43:51;;;;;;;2.30;1.67;;;;;;;;;;6199779;23;20383;-92
2023/10/29 09:46:17;;;;;;;1.77;1.37;;;;;;;;;;6201064;23;21297;-92
2023/10/29 09:48:44;;;;;;;1.50;1.40;;;;;;;;;;6197799;23;20383;-91
2023/10/29 09:51:10;;;;;;;1.73;1.20;;;;;;;;;;6164114;23;20429;-90
2023/10/29 09:53:36;;;;;;;2.90;1.10;;;;;;;;;;6138311;23;20373;-92
2023/10/29 09:56:03;;;;;;;1.47;1.07;;;;;;;;;;6140953;23;20436;-90
2023/10/29 09:58:29;;;;;;;1.60;1.50;;;;;;;;;;6112879;23;20415;-91
2023/10/29 10:00:58;;;;;;;1.70;1.20;;;;;;;;;;6117471;23;20381;-92
2023/10/29 10:03:25;;;;;;;1.67;1.20;;;;;;;;;;6114117;23;20468;-93
2023/10/29 10:05:52;;;;;;;1.30;1.20;;;;;;;;;;6114685;23;20484;-91
2023/10/29 10:08:23;;;;;;;4.40;1.40;;;;;;;;;;6113423;23;20381;-92
2023/10/29 10:10:50;;;;;;;1.77;1.17;;;;;;;;;;6115789;23;20895;-93
2023/10/29 10:13:16;;;;;;;1.90;1.10;;;;;;;;;;6138395;23;20389;-93
2023/10/29 10:15:43;;;;;;;1.77;1.27;;;;;;;;;;6114877;23;20373;-90
2023/10/29 10:18:11;;;;;;;1.77;1.67;;;;;;;;;;6138640;23;20365;-92
2023/10/29 10:20:37;;;;;;;1.33;1.23;;;;;;;;;;6114073;23;20380;-93
2023/10/29 10:23:04;;;;;;;2.60;1.20;;;;;;;;;;6213720;23;20367;-93
2023/10/29 10:25:30;;;;;;;2.67;1.60;;;;;;;;;;6199250;23;20510;-92
2023/10/29 10:27:57;;;;;;;1.40;1.20;;;;;;;;;;6198913;23;20493;-93
2023/10/29 10:30:24;;;;;;;1.37;1.20;;;;;;;;;;6200294;23;20709;-93
2023/10/29 10:32:50;;;;;;;1.50;1.10;;;;;;;;;;6202689;23;20374;-91
2023/10/29 10:35:16;;;;;;;1.73;1.20;;;;;;;;;;6198878;23;20403;-93
2023/10/29 10:37:54;;;;;;;1.77;1.10;;;;;;;;;;6198748;23;20788;-90
2023/10/29 10:40:26;;;;;;;2.67;1.17;;;;;;;;;;6197360;23;20389;-90
2023/10/29 10:42:56;;;;;;;2.73;1.50;;;;;;;;;;6200194;23;20387;-89
2023/10/29 10:45:26;;;;;;;1.50;1.00;;;;;;;;;;6197293;23;20422;-93
2023/10/29 10:47:54;;;;;;;1.90;1.27;;;;;;;;;;6202047;23;20414;-89
2023/10/29 10:50:20;;;;;;;3.40;1.60;;;;;;;;;;6199670;23;20412;-92
2023/10/29 10:52:46;;;;;;;3.57;1.67;;;;;;;;;;6201990;23;20401;-90
2023/10/29 10:55:12;;;;;;;3.83;1.33;;;;;;;;;;6201581;23;20450;-91
2023/10/29 10:57:38;;;;;;;3.17;1.40;;;;;;;;;;6200554;23;20406;-91
2023/10/29 11:00:05;;;;;;;6.17;2.30;;;;;;;;;;6201524;23;20449;-91
2023/10/29 11:02:32;;;;;;;2.50;1.83;;;;;;;;;;6204899;23;20383;-93
2023/10/29 11:04:57;;;;;;;3.37;1.80;;;;;;;;;;6200900;23;20468;-92
2023/10/29 11:07:23;;;;;;;3.90;1.80;;;;;;;;;;6202523;23;20426;-93
2023/10/29 11:09:49;;;;;;;2.10;1.57;;;;;;;;;;6201207;23;20387;-92
2023/10/29 11:12:16;;;;;;;1.77;1.30;;;;;;;;;;6198853;23;20383;-92
2023/10/29 11:15:02;;;;;;;1.80;1.70;;;;;;;;;;6201802;23;20410;-92
2023/10/29 11:17:46;;;;;;;3.90;1.80;;;;;;;;;;6250437;23;20454;-91
2023/10/29 11:20:32;;;;;;;3.20;1.73;;;;;;;;;;6225534;23;20454;-90
2023/10/29 11:22:59;;;;;;;5.87;2.83;;;;;;;;;;6250884;23;20859;-92
2023/10/29 11:25:28;;;;;;;2.73;1.40;;;;;;;;;;6199507;23;20857;-92
2023/10/29 11:27:55;;;;;;;1.80;1.60;;;;;;;;;;6200804;23;20403;-91
2023/10/29 11:30:21;;;;;;;1.70;1.60;;;;;;;;;;6201103;23;20406;-92
2023/10/29 11:33:10;;;;;;;1.87;1.57;;;;;;;;;;6202207;23;20922;-93
2023/10/29 11:35:36;;;;;;;2.07;1.50;;;;;;;;;;6249195;23;20832;-92
2023/10/29 11:38:03;;;;;;;2.87;1.23;;;;;;;;;;6202163;23;20402;-92
2023/10/29 11:40:30;;;;;;;3.37;2.13;;;;;;;;;;6205478;23;20415;-91
2023/10/29 11:43:15;;;;;;;2.20;1.30;;;;;;;;;;6209780;23;20413;-91
2023/10/29 11:45:41;;;;;;;2.20;1.40;;;;;;;;;;6232052;23;20415;-92
2023/10/29 11:48:11;;;;;;;1.90;1.27;;;;;;;;;;6208985;23;20414;-92
2023/10/29 11:50:37;;;;;;;2.23;1.27;;;;;;;;;;6257872;23;21073;-92
2023/10/29 11:53:03;;;;;;;1.60;1.40;;;;;;;;;;6209820;23;20379;-92
2023/10/29 11:55:30;;;;;;;3.47;1.67;;;;;;;;;;6206842;23;20395;-92
2023/10/29 11:57:56;;;;;;;3.50;1.40;;;;;;;;;;6209742;23;20384;-93
2023/10/29 12:00:22;;;;;;;1.43;1.17;;;;;;;;;;6207588;23;20355;-93
2023/10/29 12:02:49;;;;;;;1.53;1.10;;;;;;;;;;6204278;23;20404;-92
2023/10/29 12:05:15;;;;;;;1.57;1.30;;;;;;;;;;6204863;23;20402;-92
2023/10/29 12:07:42;;;;;;;2.87;1.07;;;;;;;;;;6207589;23;20410;-90
2023/10/29 12:10:08;;;;;;;2.53;1.07;;;;;;;;;;6204632;23;20443;-93
2023/10/29 12:12:34;;;;;;;2.13;0.97;;;;;;;;;;6204752;23;20379;-92
2023/10/29 12:15:00;;;;;;;2.83;1.27;;;;;;;;;;6228708;23;20367;-91
2023/10/29 12:17:29;;;;;;;1.20;0.73;;;;;;;;;;6202518;23;20402;-91
2023/10/29 12:19:56;;;;;;;1.40;0.80;;;;;;;;;;6199623;23;20391;-92
2023/10/29 12:22:22;;;;;;;1.60;0.73;;;;;;;;;;6199444;23;20475;-90
2023/10/29 12:24:49;;;;;;;2.80;1.10;;;;;;;;;;6200200;23;20379;-93
2023/10/29 12:27:22;;;;;;;2.30;1.00;;;;;;;;;;6201813;23;20426;-91
2023/10/29 12:29:48;;;;;;;1.87;1.03;;;;;;;;;;6198450;23;20862;-91
2023/10/29 12:32:15;;;;;;;1.70;0.90;;;;;;;;;;6200100;23;20379;-91
2023/10/29 12:34:51;;;;;;;1.43;0.90;;;;;;;;;;6197308;23;20395;-91
2023/10/29 12:37:43;;;;;;;1.50;1.10;;;;;;;;;;6198780;23;20406;-92
2023/10/29 12:40:10;;;;;;;2.13;1.00;;;;;;;;;;6218105;23;20406;-93
2023/10/29 12:42:52;;;;;;;1.80;0.80;;;;;;;;;;6200548;23;20379;-91
2023/10/29 12:45:25;;;;;;;1.50;0.93;;;;;;;;;;6199143;23;20402;-91
2023/10/29 12:48:27;;;;;;;2.50;1.00;;;;;;;;;;6198707;23;20363;-92
2023/10/29 12:50:53;;;;;;;2.37;1.20;;;;;;;;;;6132203;23;20428;-93
2023/10/29 12:53:25;;;;;;;1.57;0.80;;;;;;;;;;6173154;23;20437;-93
2023/10/29 12:55:51;;;;;;;2.03;1.10;;;;;;;;;;6248048;22;20387;-90
2023/10/29 12:58:17;;;;;;;1.67;0.87;;;;;;;;;;6196820;23;20425;-90
2023/10/29 13:00:43;;;;;;;1.70;0.93;;;;;;;;;;6197319;23;20398;-92
2023/10/29 13:03:11;;;;;;;1.27;0.80;;;;;;;;;;6199544;23;20395;-90
2023/10/29 13:05:37;;;;;;;1.63;0.73;;;;;;;;;;6221290;23;20991;-93
2023/10/29 13:08:04;;;;;;;5.57;2.47;;;;;;;;;;6199225;23;20387;-92
2023/10/29 13:10:32;;;;;;;1.23;0.90;;;;;;;;;;6199174;23;20485;-93
2023/10/29 13:12:58;;;;;;;2.10;1.00;;;;;;;;;;6204817;23;20399;-93
2023/10/29 13:15:24;;;;;;;2.10;1.30;;;;;;;;;;6200757;23;20398;-92
2023/10/29 13:17:51;;;;;;;1.53;1.13;;;;;;;;;;6202513;23;20375;-92
2023/10/29 13:20:20;;;;;;;2.33;1.93;;;;;;;;;;6225425;23;20407;-94
2023/10/29 13:22:46;;;;;;;3.50;1.07;;;;;;;;;;6201740;23;20371;-92
2023/10/29 13:25:13;;;;;;;2.60;1.50;;;;;;;;;;6199777;23;20729;-91
2023/10/29 13:27:42;;;;;;;2.40;1.53;;;;;;;;;;6200226;23;20391;-93
2023/10/29 13:30:08;;;;;;;2.47;1.23;;;;;;;;;;6197897;23;20390;-93
2023/10/29 13:32:34;;;;;;;3.43;1.43;;;;;;;;;;6197796;23;20374;-91
2023/10/29 13:35:04;;;;;;;1.60;1.20;;;;;;;;;;6196658;23;20383;-92
2023/10/29 13:37:30;;;;;;;3.67;2.27;;;;;;;;;;6199184;23;20383;-92
2023/10/29 13:39:56;;;;;;;2.63;2.20;;;;;;;;;;6196504;23;20435;-92
2023/10/29 13:42:23;;;;;;;3.30;2.90;;;;;;;;;;6199258;23;20430;-92
2023/10/29 13:44:51;;;;;;;7.27;5.50;;;;;;;;;;6197648;23;20380;-92
2023/10/29 13:47:20;;;;;;;3.97;3.00;;;;;;;;;;6227520;23;20442;-91
2023/10/29 13:49:48;;;;;;;4.33;3.93;;;;;;;;;;6198958;23;20445;-90
2023/10/29 13:52:14;;;;;;;3.00;2.70;;;;;;;;;;6199459;23;20952;-93
2023/10/29 13:54:42;;;;;;;7.60;3.53;;;;;;;;;;6194470;23;20378;-93
2023/10/29 13:57:08;;;;;;;3.57;1.77;;;;;;;;;;6200136;23;20375;-92
2023/10/29 13:59:34;;;;;;;2.17;1.20;;;;;;;;;;6196683;23;20386;-91
2023/10/29 14:02:00;;;;;;;2.07;1.40;;;;;;;;;;6220257;23;20752;-88
2023/10/29 14:04:26;;;;;;;2.00;1.77;;;;;;;;;;6193542;23;20375;-88
2023/10/29 14:06:52;;;;;;;3.77;1.63;;;;;;;;;;6195569;23;20455;-88
2023/10/29 14:09:18;;;;;;;1.60;1.17;;;;;;;;;;6192323;23;20395;-88
2023/10/29 14:11:44;;;;;;;3.57;1.60;;;;;;;;;;6193967;23;20383;-88
2023/10/29 14:14:10;;;;;;;3.23;1.83;;;;;;;;;;6197048;23;20371;-88
2023/10/29 14:16:37;;;;;;;3.27;2.50;;;;;;;;;;6193474;23;20397;-88
2023/10/29 14:19:04;;;;;;;3.90;3.60;;;;;;;;;;6197025;23;20390;-89
2023/10/29 14:21:30;;;;;;;2.60;1.87;;;;;;;;;;6191476;23;20897;-87
2023/10/29 14:23:56;;;;;;;3.07;2.70;;;;;;;;;;6193814;23;20378;-88
2023/10/29 14:26:22;;;;;;;1.60;1.33;;;;;;;;;;6221723;23;20555;-88
2023/10/29 14:28:48;;;;;;;2.23;1.10;;;;;;;;;;6194288;23;20403;-88
2023/10/29 14:31:14;;;;;;;1.80;1.50;;;;;;;;;;6194511;23;20905;-88
2023/10/29 14:33:40;;;;;;;6.13;3.63;;;;;;;;;;6194097;23;20379;-88
2023/10/29 14:36:07;;;;;;;6.33;4.80;;;;;;;;;;6194508;23;20379;-88
2023/10/29 14:38:33;;;;;;;23.17;12.13;;;;;;;;;;6194521;23;20372;-88
2023/10/29 14:40:59;;;;;;;12.37;4.50;;;;;;;;;;6221695;23;20405;-88